Flight Track Log - Related Links

Times and Time Zones

All times are in EDT time to prevent confusion due to time zone crossing. See the N662AA flight status page for this flight to view local times or setup timezone preferences in your user account.

Time Position Orientation Groundspeed Altitude Reporting Facility
EDT Latitude Longitude Course Direction KTS MPH feet Rate Location/Type
Tue 09:11:15 AM 33.9446 -118.3710 251° West  Level FlightAware Approximate
Tue 09:12:15 AM 33.9333 -118.5185 111° Southeast  Level FlightAware Approximate
Tue 09:12:47 AM 33.9167 -118.4667 236° Southwest 210 242 3,100  Level Southern California TRACON
Tue 09:13:42 AM 33.8889 -118.5158 196° South 245 282 4,600 2,504 Climbing Los Angeles Center
Tue 09:14:42 AM 33.8089 -118.5436 170° South 253 291 7,900 2,975 Climbing Los Angeles Center
Tue 09:15:43 AM 33.7258 -118.5264 131° Southeast 264 304 10,600 2,500 Climbing Los Angeles Center
Tue 09:16:42 AM 33.6731 -118.4525 107° East 266 306 12,900 1,714 Climbing Los Angeles Center
Tue 09:17:42 AM 33.6439 -118.3369 91° East 278 320 14,000 1,600 Climbing Los Angeles Center
Tue 09:18:42 AM 33.6419 -118.2047 89° East 330 380 16,100 2,050 Climbing Los Angeles Center
Tue 09:19:42 AM 33.6442 -118.0700 90° East 371 427 18,100 1,950 Climbing Los Angeles Center
Tue 09:20:42 AM 33.6442 -117.9303 90° East 391 450 20,000 1,850 Climbing Los Angeles Center
Tue 09:21:42 AM 33.6442 -117.7881 90° East 411 473 21,800 1,750 Climbing Los Angeles Center
Tue 09:22:42 AM 33.6442 -117.6433 90° East 425 489 23,500 1,650 Climbing Los Angeles Center
Tue 09:23:42 AM 33.6439 -117.4761 90° East 441 507 25,100 1,650 Climbing Los Angeles Center
Tue 09:24:42 AM 33.6433 -117.3239 90° East 447 514 26,800 1,700 Climbing Los Angeles Center
Tue 09:25:42 AM 33.6428 -117.1667 90° East 460 529 28,500 1,500 Climbing Los Angeles Center
Tue 09:26:42 AM 33.6419 -117.0244 83° East 460 529 29,800 1,600 Climbing Los Angeles Center
Tue 09:27:42 AM 33.6597 -116.8600 80° East 472 543 31,700 2,050 Climbing Los Angeles Center
Tue 09:28:42 AM 33.6814 -116.7053 84° East 483 556 33,900 1,950 Climbing Los Angeles Center
Tue 09:29:42 AM 33.6944 -116.5506 82° East 478 550 35,600 1,650 Climbing Los Angeles Center
Tue 09:30:42 AM 33.7117 -116.3933 83° East 473 544 37,200 1,400 Climbing Los Angeles Center
Tue 09:31:42 AM 33.7267 -116.2411 83° East 468 539 38,400 1,050 Climbing Los Angeles Center
Tue 09:32:42 AM 33.7411 -116.0886 81° East 463 533 39,300 900 Climbing Los Angeles Center
Tue 09:33:42 AM 33.7600 -115.9364 83° East 458 527 40,200 800 Climbing Los Angeles Center
Tue 09:34:42 AM 33.7764 -115.7839 83° East 463 533 40,900 400 Climbing Los Angeles Center
Tue 09:35:42 AM 33.7925 -115.6314 83° East 463 533 41,000 50 Climbing Los Angeles Center
Tue 09:36:42 AM 33.8083 -115.4786 82° East 463 533 41,000  Level Los Angeles Center
Tue 09:37:44 AM 33.8264 -115.3261 83° East 463 533 41,000  Level Los Angeles Center
Tue 09:38:42 AM 33.8419 -115.1733 84° East 463 533 41,000  Level Los Angeles Center
Tue 09:39:42 AM 33.8553 -115.0206 83° East 463 533 41,000  Level Los Angeles Center
Tue 09:40:42 AM 33.8706 -114.8653 82° East 463 533 41,000  Level Los Angeles Center
Tue 09:41:43 AM 33.8875 -114.7100 83° East 463 533 41,000  Level Los Angeles Center
Tue 09:42:42 AM 33.9025 -114.5594 83° East 463 533 41,000  Level Los Angeles Center
Tue 09:44:42 AM 33.9333 -114.2592 85° East 456 525 41,000  Level Albuquerque Center
Tue 09:45:41 AM 33.9442 -114.1047 83° East 461 531 41,000  Level Albuquerque Center
Tue 09:46:41 AM 33.9589 -113.9508 83° East 461 531 41,000  Level Albuquerque Center
Tue 09:47:42 AM 33.9736 -113.7992 84° East 461 531 41,000  Level Albuquerque Center
Tue 09:48:41 AM 33.9881 -113.6450 83° East 456 525 41,000  Level Albuquerque Center
Tue 09:49:41 AM 34.0042 -113.4933 85° East 456 525 41,000  Level Albuquerque Center
Tue 09:50:41 AM 34.0161 -113.3414 84° East 456 525 41,000  Level Albuquerque Center
Tue 09:51:41 AM 34.0306 -113.1722 84° East 461 531 41,000  Level Albuquerque Center
Tue 09:52:41 AM 34.0444 -113.0178 84° East 461 531 41,000  Level Albuquerque Center
Tue 09:53:41 AM 34.0578 -112.8658 84° East 461 531 41,000  Level Albuquerque Center
Tue 09:54:41 AM 34.0708 -112.7111 82° East 461 531 41,000  Level Albuquerque Center
Tue 09:55:41 AM 34.0883 -112.5544 85° East 466 536 41,000  Level Albuquerque Center
Tue 09:56:41 AM 34.0992 -112.3994 84° East 461 531 41,000  Level Albuquerque Center
Tue 09:57:41 AM 34.1119 -112.2422 84° East 461 531 41,000  Level Albuquerque Center
Tue 09:58:41 AM 34.1244 -112.0875 85° East 461 531 41,000  Level Albuquerque Center
Tue 09:59:41 AM 34.1367 -111.9300 85° East 461 531 41,000  Level Albuquerque Center
Tue 10:00:41 AM 34.1467 -111.7750 85° East 466 536 41,000  Level Albuquerque Center
Tue 10:01:41 AM 34.1589 -111.6150 85° East 461 531 41,000  Level Albuquerque Center
Tue 10:02:41 AM 34.1706 -111.4600 85° East 461 531 41,000  Level Albuquerque Center
Tue 10:03:41 AM 34.1814 -111.3200 86° East 461 531 41,000  Level Albuquerque Center
Tue 10:04:41 AM 34.1906 -111.1647 84° East 461 531 41,000  Level Albuquerque Center
Tue 10:05:41 AM 34.2039 -111.0097 85° East 461 531 41,000  Level Albuquerque Center
Tue 10:06:41 AM 34.2147 -110.8544 86° East 461 531 41,000  Level Albuquerque Center
Tue 10:07:41 AM 34.2233 -110.6942 85° East 461 531 41,000  Level Albuquerque Center
Tue 10:08:41 AM 34.2339 -110.5364 85° East 461 531 41,000  Level Albuquerque Center
Tue 10:09:41 AM 34.2444 -110.3783 86° East 461 531 41,000  Level Albuquerque Center
Tue 10:10:41 AM 34.2544 -110.2231 85° East 461 531 41,000  Level Albuquerque Center
Tue 10:11:41 AM 34.2664 -110.0675 86° East 461 531 41,000  Level Albuquerque Center
Tue 10:12:41 AM 34.2764 -109.8944 87° East 468 539 41,000  Level Albuquerque Center
Tue 10:13:41 AM 34.2839 -109.7389 86° East 468 539 41,000  Level Albuquerque Center
Tue 10:14:41 AM 34.2928 -109.5983 85° East 468 539 41,000  Level Albuquerque Center
Tue 10:15:41 AM 34.3042 -109.4253 86° East 462 532 41,000  Level Albuquerque Center
Tue 10:16:41 AM 34.3131 -109.2644 85° East 462 532 41,000  Level Albuquerque Center
Tue 10:17:41 AM 34.3239 -109.1114 87° East 467 537 41,000  Level Albuquerque Center
Tue 10:18:41 AM 34.3303 -108.9556 86° East 467 537 41,000  Level Albuquerque Center
Tue 10:19:41 AM 34.3383 -108.7997 86° East 461 531 41,000  Level Albuquerque Center
Tue 10:20:41 AM 34.3464 -108.6414 86° East 461 531 41,000  Level Albuquerque Center
Tue 10:21:41 AM 34.3544 -108.4856 88° East 461 531 41,000  Level Albuquerque Center
Tue 10:22:41 AM 34.3597 -108.3347 88° East 456 525 41,000  Level Albuquerque Center
Tue 10:23:41 AM 34.3631 -108.1764 87° East 456 525 41,000  Level Albuquerque Center
Tue 10:24:41 AM 34.3703 -108.0178 87° East 463 533 41,000  Level Albuquerque Center
Tue 10:25:42 AM 34.3772 -107.8669 87° East 458 527 41,000  Level Albuquerque Center
Tue 10:26:41 AM 34.3842 -107.7158 87° East 453 521 41,000  Level Albuquerque Center
Tue 10:27:41 AM 34.3908 -107.5600 87° East 453 521 41,000  Level Albuquerque Center
Tue 10:28:41 AM 34.3972 -107.4167 88° East 447 514 41,000  Level Albuquerque Center
Tue 10:29:41 AM 34.4014 -107.2781 88° East 441 507 41,000  Level Albuquerque Center
Tue 10:30:41 AM 34.4072 -107.1119 86° East 441 507 41,000  Level Albuquerque Center
Tue 10:31:41 AM 34.4153 -106.9608 87° East 441 507 41,000  Level Albuquerque Center
Tue 10:32:41 AM 34.4208 -106.8072 87° East 441 507 41,000  Level Albuquerque Center
Tue 10:33:41 AM 34.4264 -106.6536 89° East 441 507 41,000  Level Albuquerque Center
Tue 10:34:41 AM 34.4294 -106.4975 88° East 449 517 41,000  Level Albuquerque Center
Tue 10:35:41 AM 34.4347 -106.3464 85° East 449 517 41,000  Level Albuquerque Center
Tue 10:36:41 AM 34.4439 -106.2153 90° East 449 517 41,000  Level Albuquerque Center
Tue 10:37:41 AM 34.4444 -106.0567 87° East 449 517 41,000  Level Albuquerque Center
Tue 10:38:41 AM 34.4511 -105.9081 89° East 443 510 41,000  Level Albuquerque Center
Tue 10:39:41 AM 34.4531 -105.7517 88° East 451 519 41,000  Level Albuquerque Center
Tue 10:40:41 AM 34.4572 -105.6006 89° East 451 519 41,000  Level Albuquerque Center
Tue 10:41:41 AM 34.4589 -105.4342 88° East 451 519 41,000  Level Albuquerque Center
Tue 10:42:41 AM 34.4625 -105.2806 87° East 451 519 41,000  Level Albuquerque Center
Tue 10:43:41 AM 34.4683 -105.1292 89° East 451 519 41,000  Level Albuquerque Center
Tue 10:44:41 AM 34.4694 -104.9756 88° East 451 519 41,000  Level Albuquerque Center
Tue 10:45:41 AM 34.4747 -104.8242 90° East 457 526 41,000  Level Albuquerque Center
Tue 10:46:41 AM 34.4756 -104.6706 92° East 457 526 41,000  Level Albuquerque Center
Tue 10:47:41 AM 34.4700 -104.5169 93° East 457 526 41,000  Level Albuquerque Center
Tue 10:48:41 AM 34.4642 -104.3661 93° East 452 520 41,000  Level Albuquerque Center
Tue 10:49:41 AM 34.4581 -104.2150 92° East 452 520 41,000  Level Albuquerque Center
Tue 10:50:41 AM 34.4542 -104.0617 93° East 452 520 41,000  Level Albuquerque Center
Tue 10:51:41 AM 34.4478 -103.9133 93° East 452 520 41,000  Level Albuquerque Center
Tue 10:52:41 AM 34.4411 -103.7575 92° East 452 520 41,000  Level Albuquerque Center
Tue 10:53:41 AM 34.4364 -103.6067 93° East 452 520 41,000  Level Albuquerque Center
Tue 10:54:41 AM 34.4294 -103.4533 92° East 452 520 41,000  Level Albuquerque Center
Tue 10:55:41 AM 34.4250 -103.3175 94° East 458 527 41,000  Level Albuquerque Center
Tue 10:56:41 AM 34.4156 -103.1644 93° East 458 527 41,000  Level Albuquerque Center
Tue 10:57:35 AM 34.4089 -103.0139 93° East 464 534 41,000  Level Fort Worth Center
Tue 10:58:35 AM 34.4031 -102.8600 94° East 459 528 41,000  Level Fort Worth Center
Tue 10:59:35 AM 34.3931 -102.7058 94° East 454 522 41,000  Level Fort Worth Center
Tue 11:00:35 AM 34.3847 -102.5519 93° East 454 522 41,000  Level Fort Worth Center
Tue 11:01:35 AM 34.3786 -102.3956 94° East 459 528 41,000  Level Fort Worth Center
Tue 11:02:35 AM 34.3700 -102.2442 93° East 463 533 41,000  Level Fort Worth Center
Tue 11:03:35 AM 34.3633 -102.0878 98° East 463 533 41,000  Level Fort Worth Center
Tue 11:04:35 AM 34.3442 -101.9283 99° East 463 533 41,000  Level Fort Worth Center
Tue 11:05:35 AM 34.3247 -101.7764 99° East 463 533 41,000  Level Fort Worth Center
Tue 11:06:35 AM 34.3050 -101.6219 100° East 472 543 41,000  Level Fort Worth Center
Tue 11:07:35 AM 34.2831 -101.4653 100° East 469 540 41,000  Level Fort Worth Center
Tue 11:08:35 AM 34.2606 -101.3158 100° East 476 548 41,000  Level Fort Worth Center
Tue 11:09:34 AM 34.2400 -101.1717 98° East 469 540 41,000  Level Fort Worth Center
Tue 11:10:35 AM 34.2197 -101.0025 100° East 475 547 41,000  Level Fort Worth Center
Tue 11:11:34 AM 34.1972 -100.8433 99° East 475 547 41,000  Level Fort Worth Center
Tue 11:12:35 AM 34.1764 -100.6869 100° East 475 547 41,000  Level Fort Worth Center
Tue 11:13:35 AM 34.1533 -100.5281 99° East 475 547 41,000  Level Fort Worth Center
Tue 11:14:35 AM 34.1356 -100.3994 100° East 475 547 41,000  Level Fort Worth Center
Tue 11:15:35 AM 34.1083 -100.2228 100° East 475 547 41,000  Level Fort Worth Center
Tue 11:16:35 AM 34.0847 -100.0642 100° East 475 547 41,000 -504 Level Fort Worth Center
Tue 11:17:34 AM 34.0608 -99.9031 100° East 481 554 40,000 -1,200 Descending Fort Worth Center
Tue 11:18:35 AM 34.0369 -99.7394 99° East 488 562 38,600 -1,884 Descending Fort Worth Center
Tue 11:19:35 AM 34.0147 -99.5783 103° East 488 562 36,200 -2,350 Descending Fort Worth Center
Tue 11:20:35 AM 33.9819 -99.4122 124° Southeast 488 562 33,900 -2,150 Descending Fort Worth Center
Tue 11:21:35 AM 33.9050 -99.2728 134° Southeast 488 562 31,900 -1,900 Descending Fort Worth Center
Tue 11:22:35 AM 33.8167 -99.1611 116° Southeast 462 532 30,100 -1,765 Descending Fort Worth Center
Tue 11:23:34 AM 33.7561 -99.0125 102° East 453 521 28,400 -1,650 Descending Fort Worth Center
Tue 11:24:35 AM 33.7308 -98.8719 103° East 447 514 26,800 -1,488 Descending Fort Worth Center
Tue 11:25:35 AM 33.7031 -98.7267 102° East 440 506 25,400 -1,350 Descending Fort Worth Center
Tue 11:26:35 AM 33.6794 -98.5892 104° East 429 494 24,100 -1,600 Descending Fort Worth Center
Tue 11:27:35 AM 33.6514 -98.4514 101° East 429 494 22,200 -1,950 Descending Fort Worth Center
Tue 11:28:35 AM 33.6294 -98.3167 108° East 424 488 20,200 -1,800 Descending Fort Worth Center
Tue 11:29:35 AM 33.5989 -98.2039 116° Southeast 405 466 18,600 -1,800 Descending Fort Worth Center
Tue 11:30:35 AM 33.5475 -98.0764 113° Southeast 382 440 16,600 -1,800 Descending Fort Worth Center
Tue 11:31:35 AM 33.5083 -97.9642 114° Southeast 371 427 15,000 -1,552 Descending Fort Worth Center
Tue 11:32:31 AM 33.4733 -97.8689 115° Southeast 350 403 13,600 -1,485 Descending FAA TRACON SMA TRACON (SMA)
Tue 11:33:12 AM 33.4461 -97.7986 116° Southeast 338 389 12,600 -1,390 Descending FAA TRACON SMA TRACON (SMA)
Tue 11:33:53 AM 33.4197 -97.7325 115° Southeast 320 368 11,700 -1,333 Descending FAA TRACON SMA TRACON (SMA)
Tue 11:34:33 AM 33.3947 -97.6678 126° Southeast 308 354 10,800 -1,275 Descending FAA TRACON SMA TRACON (SMA)
Tue 11:35:13 AM 33.3656 -97.6189 136° Southeast 297 342 10,000 -1,425 Descending FAA TRACON SMA TRACON (SMA)
Tue 11:35:53 AM 33.3256 -97.5725 127° Southeast 290 334 8,900 -1,556 Descending FAA TRACON SMA TRACON (SMA)
Tue 11:36:34 AM 33.2919 -97.5189 111° Southeast 295 339 7,900 -1,367 Descending FAA TRACON SMA TRACON (SMA)
Tue 11:37:12 AM 33.2739 -97.4631 112° Southeast 294 338 7,100 -1,139 Descending FAA TRACON SMA TRACON (SMA)
Tue 11:37:53 AM 33.2539 -97.4033 111° Southeast 283 326 6,400 -805 Descending FAA TRACON SMA TRACON (SMA)
Tue 11:38:34 AM 33.2364 -97.3478 109° East 263 303 6,000 -750 Descending FAA TRACON SMA TRACON (SMA)
Tue 11:39:13 AM 33.2228 -97.3000 110° East 244 281 5,400 -1,139 Descending FAA TRACON SMA TRACON (SMA)
Tue 11:39:53 AM 33.2072 -97.2486 108° East 241 277 4,500 -1,125 Descending FAA TRACON SMA TRACON (SMA)
Tue 11:40:33 AM 33.1944 -97.2011 106° East 241 277 3,900 -900 Descending FAA TRACON SMA TRACON (SMA)
Tue 11:41:13 AM 33.1817 -97.1483 108° East 238 274 3,300 -750 Descending FAA TRACON SMA TRACON (SMA)
Tue 11:41:53 AM 33.1686 -97.0997 117° Southeast 225 259 2,900 -300 Descending FAA TRACON SMA TRACON (SMA)
Tue 11:42:33 AM 33.1514 -97.0600 174° South 231 266 2,900  Level FAA TRACON SMA TRACON (SMA)
Tue 11:43:12 AM 33.1128 -97.0550 180° South 208 239 2,900  Level FAA TRACON SMA TRACON (SMA)
Tue 11:43:51 AM 33.0789 -97.0547 180° South 166 191 2,900  Level FAA TRACON SMA TRACON (SMA)
Tue 11:44:32 AM 33.0494 -97.0547 180° South 170 196 2,900 -296 Level FAA TRACON SMA TRACON (SMA)
Tue 11:45:12 AM 33.0178 -97.0544 180° South 159 183 2,500 -600 Descending FAA TRACON SMA TRACON (SMA)

Login

Don't have an account? Register now (free) for customized features, flight alerts, and more!